Time;durP1;ratioP1;P1;durP2;ratioP2;P2;SDS_P1;SDS_P2;PMS_P1;PMS_P2;Temp;Humidity;BMP_temperature;BMP_pressure;BME280_temperature;BME280_humidity;BME280_pressure;Samples;Min_cycle;Max_cycle;Signal;HPM_P1;HPM_P2
2022/05/09 00:00:18;;;;;;;4.97;3.43;;;12.70;61.20;;;12.83;48.52;95390.28;5049472;28;20478;-56
2022/05/09 00:02:45;;;;;;;4.63;3.73;;;12.60;61.80;;;12.80;48.41;95391.41;5047857;28;20460;-54
2022/05/09 00:05:16;;;;;;;6.20;3.67;;;12.60;61.90;;;12.77;48.68;95386.41;5055416;28;21044;-57
2022/05/09 00:07:44;;;;;;;4.70;4.20;;;12.60;62.50;;;12.76;49.01;95389.19;5053771;28;20913;-58
2022/05/09 00:10:13;;;;;;;10.40;4.10;;;12.60;62.90;;;12.73;49.13;95395.56;5053788;28;20483;-55
2022/05/09 00:12:40;;;;;;;15.00;3.90;;;12.50;63.10;;;12.70;49.27;95390.56;5053013;28;20502;-56
2022/05/09 00:15:08;;;;;;;10.00;4.10;;;12.50;64.50;;;12.66;49.28;95405.03;5062476;28;20509;-56
2022/05/09 00:17:36;;;;;;;14.87;5.13;;;12.50;63.80;;;12.62;49.79;95393.06;5055447;28;20463;-57
2022/05/09 00:20:03;;;;;;;4.00;3.60;;;12.40;64.30;;;12.57;49.52;95392.66;5058578;28;20455;-54
2022/05/09 00:22:31;;;;;;;5.50;3.17;;;12.40;64.20;;;12.54;49.75;95396.41;5057034;28;20455;-56
2022/05/09 00:25:01;;;;;;;14.40;3.80;;;12.40;65.20;;;12.51;49.66;95402.78;5058852;28;20459;-55
2022/05/09 00:27:29;;;;;;;4.63;4.03;;;12.40;65.20;;;12.49;49.94;95404.72;5058052;28;20637;-55
2022/05/09 00:29:57;;;;;;;6.63;4.00;;;12.30;65.20;;;12.46;50.05;95401.56;5063451;28;20455;-55
2022/05/09 00:32:25;;;;;;;6.00;4.23;;;12.30;65.20;;;12.43;50.10;95407.94;5055110;28;20490;-56
2022/05/09 00:34:52;;;;;;;5.23;3.63;;;12.30;65.90;;;12.40;50.12;95408.19;5048755;28;21006;-56
2022/05/09 00:37:19;;;;;;;5.10;4.37;;;12.20;66.00;;;12.36;50.47;95405.03;5054117;28;20447;-55
2022/05/09 00:39:47;;;;;;;6.10;4.63;;;12.20;66.50;;;12.32;50.08;95408.06;5062424;28;20482;-56
2022/05/09 00:42:16;;;;;;;10.23;4.87;;;12.20;66.30;;;12.28;50.21;95407.47;5053541;28;20463;-55
2022/05/09 00:44:46;;;;;;;8.63;5.17;;;12.10;66.20;;;12.24;50.46;95403.47;5053118;28;20482;-57
2022/05/09 00:47:13;;;;;;;8.77;4.53;;;12.10;66.50;;;12.20;50.56;95402.91;5055517;28;20466;-55
2022/05/09 00:49:45;;;;;;;6.80;4.40;;;12.10;67.00;;;12.16;50.54;95404.16;5055409;28;20870;-56
2022/05/09 00:52:17;;;;;;;5.70;4.33;;;12.00;67.20;;;12.14;50.83;95408.72;5051143;28;20465;-57
2022/05/09 00:54:48;;;;;;;4.50;4.03;;;12.00;67.40;;;12.11;50.67;95406.34;5052715;28;20466;-57
2022/05/09 00:57:22;;;;;;;6.00;4.10;;;11.90;67.50;;;12.08;50.79;95411.88;5052359;28;20447;-55
2022/05/09 00:59:49;;;;;;;13.20;5.50;;;11.90;67.80;;;12.07;50.83;95404.97;5058710;28;20823;-56
2022/05/09 01:02:16;;;;;;;11.40;4.70;;;11.90;68.00;;;12.05;51.27;95412.16;5046100;28;20968;-56
2022/05/09 01:04:49;;;;;;;9.70;5.37;;;11.90;69.50;;;12.02;51.12;95407.16;5052003;28;20451;-54
2022/05/09 01:07:17;;;;;;;4.43;3.97;;;11.90;68.40;;;11.97;51.10;95407.56;5058132;28;20892;-55
2022/05/09 01:09:44;;;;;;;9.40;4.30;;;11.80;68.60;;;11.95;51.48;95411.31;5059390;28;20466;-54
2022/05/09 01:12:12;;;;;;;4.77;4.43;;;11.80;69.70;;;11.93;51.75;95414.09;5059451;28;20540;-56
2022/05/09 01:14:41;;;;;;;6.63;4.67;;;11.80;69.00;;;11.92;51.51;95411.56;5048461;28;20856;-56
2022/05/09 01:17:09;;;;;;;5.67;4.10;;;11.80;69.50;;;11.89;51.65;95406.56;5047756;28;20483;-55
2022/05/09 01:19:38;;;;;;;6.90;4.07;;;11.80;69.80;;;11.89;51.63;95417.09;5050520;28;20448;-55
2022/05/09 01:22:18;;;;;;;7.60;4.50;;;11.70;69.70;;;11.86;52.20;95415.56;5053422;28;20507;-56
2022/05/09 01:24:45;;;;;;;12.13;3.67;;;11.70;70.70;;;11.84;51.93;95413.06;5049800;28;20478;-54
2022/05/09 01:27:13;;;;;;;13.13;5.00;;;11.70;71.00;;;11.83;52.24;95418.47;5056433;28;20459;-58
2022/05/09 01:29:45;;;;;;;8.93;4.63;;;11.70;71.30;;;11.81;52.13;95420.41;5054416;28;20979;-54
2022/05/09 01:32:13;;;;;;;8.43;4.40;;;11.70;71.00;;;11.76;52.29;95412.91;5059384;28;20452;-54
2022/05/09 01:34:44;;;;;;;6.93;4.60;;;11.60;71.00;;;11.76;52.39;95420.81;5055042;28;20459;-53
2022/05/09 01:37:12;;;;;;;6.73;4.53;;;11.60;71.60;;;11.75;52.57;95416.50;5046537;28;20464;-55
2022/05/09 01:39:40;;;;;;;6.23;4.17;;;11.60;71.80;;;11.73;52.38;95413.16;5045502;28;20460;-54
2022/05/09 01:42:09;;;;;;;7.70;4.23;;;11.60;71.70;;;11.70;52.79;95413.44;5041860;28;20528;-55
2022/05/09 01:44:37;;;;;;;5.67;3.93;;;11.60;72.70;;;11.67;52.75;95416.34;5054289;28;20464;-56
2022/05/09 01:49:50;;;;;;;6.00;4.30;;;11.50;72.70;;;11.60;52.92;95413.41;5053336;28;20505;-56
2022/05/09 01:52:19;;;;;;;10.23;4.33;;;11.50;73.10;;;11.58;53.25;95406.59;5044201;28;20542;-54
2022/05/09 01:54:46;;;;;;;6.23;4.17;;;11.40;73.30;;;11.58;53.00;95411.88;5055284;28;20654;-55
2022/05/09 01:57:14;;;;;;;8.17;4.33;;;11.40;72.90;;;11.56;53.42;95406.72;5055317;28;20467;-56
2022/05/09 01:59:42;;;;;;;8.67;4.67;;;11.40;73.50;;;11.56;53.11;95411.16;5045337;28;20460;-56
2022/05/09 02:02:11;;;;;;;13.40;4.50;;;11.40;73.40;;;11.56;53.31;95406.72;5060462;28;20998;-56
2022/05/09 02:04:40;;;;;;;4.47;3.70;;;11.40;73.90;;;11.56;53.45;95417.25;5054954;28;20455;-56
2022/05/09 02:07:09;;;;;;;8.30;4.17;;;11.40;74.40;;;11.53;53.87;95416.69;5050852;28;20484;-56
2022/05/09 02:09:40;;;;;;;6.00;4.80;;;11.40;74.70;;;11.51;53.42;95413.34;5053992;28;20823;-56
2022/05/09 02:12:08;;;;;;;7.50;4.27;;;11.40;74.50;;;11.46;53.70;95417.22;5052176;28;20857;-54
2022/05/09 02:14:36;;;;;;;9.77;4.67;;;11.40;74.90;;;11.44;53.96;95413.88;5055777;28;20483;-55
2022/05/09 02:17:04;;;;;;;8.47;4.37;;;11.30;75.10;;;11.42;53.97;95415.81;5063543;28;20479;-56
2022/05/09 02:19:31;;;;;;;4.90;4.20;;;11.30;75.40;;;11.41;54.36;95413.31;5045965;28;20623;-57
2022/05/09 02:21:59;;;;;;;8.37;4.20;;;11.30;75.80;;;11.41;53.88;95421.22;5053285;28;20502;-55
2022/05/09 02:24:27;;;;;;;4.20;3.80;;;11.30;75.40;;;11.37;54.12;95417.16;5052926;28;20470;-56
2022/05/09 02:26:56;;;;;;;5.20;4.70;;;11.20;75.60;;;11.35;54.35;95421.75;5055454;28;20480;-56
2022/05/09 02:29:23;;;;;;;10.30;5.10;;;11.20;75.90;;;11.32;54.43;95417.56;5055614;28;20459;-55
2022/05/09 02:31:51;;;;;;;9.17;4.87;;;11.20;76.30;;;11.31;54.93;95431.72;5052095;28;20476;-56
2022/05/09 02:34:19;;;;;;;8.40;4.20;;;11.10;76.80;;;11.29;55.18;95420.44;5055959;28;20484;-55
2022/05/09 02:36:46;;;;;;;6.27;3.83;;;11.10;77.40;;;11.27;54.70;95422.38;5057032;28;20490;-55
2022/05/09 02:39:14;;;;;;;6.57;4.20;;;11.10;76.80;;;11.24;54.78;95417.38;5053862;28;20833;-57
2022/05/09 02:41:41;;;;;;;9.63;4.23;;;11.10;76.80;;;11.22;54.60;95429.84;5058740;28;20499;-55
2022/05/09 02:44:12;;;;;;;6.93;4.30;;;11.10;76.80;;;11.20;54.73;95431.75;5052332;28;20491;-54
2022/05/09 02:46:40;;;;;;;14.07;3.77;;;11.10;76.80;;;11.19;54.64;95432.75;5055105;28;20498;-53
2022/05/09 02:49:07;;;;;;;9.03;4.60;;;11.10;76.80;;;11.18;54.69;95438.97;5055368;28;20881;-55
2022/05/09 02:51:35;;;;;;;5.20;3.90;;;11.10;76.90;;;11.16;54.94;95436.47;5050972;28;21076;-57
2022/05/09 02:54:02;;;;;;;9.57;3.90;;;11.00;77.10;;;11.15;54.92;95439.22;5053024;28;20502;-56
2022/05/09 02:56:29;;;;;;;4.13;3.73;;;11.00;77.70;;;11.10;54.77;95435.16;5051575;28;20506;-56
2022/05/09 02:58:56;;;;;;;8.33;4.33;;;11.00;76.90;;;11.08;54.86;95434.47;5049002;28;20464;-56
2022/05/09 03:01:25;;;;;;;5.07;3.63;;;11.00;77.80;;;11.06;55.21;95441.69;5048136;28;20494;-56
2022/05/09 03:06:38;;;;;;;4.93;4.10;;;10.90;78.20;;;11.00;55.46;95439.56;5059012;28;20497;-55
2022/05/09 03:09:06;;;;;;;5.70;3.60;;;10.90;78.40;;;11.00;55.48;95441.34;5056537;28;20452;-54
2022/05/09 03:11:33;;;;;;;9.13;4.00;;;10.90;78.60;;;10.99;55.63;95440.50;5050303;28;20987;-56
2022/05/09 03:14:00;;;;;;;13.73;4.33;;;10.80;78.70;;;10.98;55.54;95444.09;5048028;28;20494;-56
2022/05/09 03:16:29;;;;;;;6.50;5.53;;;10.80;79.00;;;10.97;56.01;95442.44;5050446;28;20498;-55
2022/05/09 03:18:56;;;;;;;7.90;5.37;;;10.80;79.80;;;10.93;55.05;95444.47;5059620;28;20463;-55
2022/05/09 03:21:24;;;;;;;12.60;4.17;;;10.80;78.20;;;10.90;55.34;95441.28;5051829;28;20471;-56
2022/05/09 03:23:51;;;;;;;5.20;4.70;;;10.80;78.60;;;10.86;55.88;95459.13;5050524;28;20902;-56
2022/05/09 03:26:19;;;;;;;9.17;5.47;;;10.80;79.20;;;10.86;55.94;95450.38;5048170;28;20555;-55
2022/05/09 03:28:46;;;;;;;13.13;6.37;;;10.70;79.30;;;10.88;55.85;95459.00;5057790;28;20467;-54
2022/05/09 03:31:14;;;;;;;7.67;4.90;;;10.70;79.50;;;10.89;56.16;95458.88;5054911;28;20483;-55
2022/05/09 03:33:43;;;;;;;7.37;4.87;;;10.70;80.20;;;10.88;55.63;95457.19;5050476;28;21077;-57
2022/05/09 03:36:10;;;;;;;13.47;3.87;;;10.80;79.60;;;10.89;56.02;95458.88;5051018;28;20878;-55
2022/05/09 03:38:39;;;;;;;7.53;3.93;;;10.80;80.10;;;10.90;56.02;95462.31;5051777;28;20473;-55
2022/05/09 03:41:06;;;;;;;10.50;4.93;;;10.80;80.30;;;10.91;55.88;95464.00;5050461;28;20486;-53
2022/05/09 03:43:34;;;;;;;9.60;5.50;;;10.80;79.80;;;10.90;56.26;95464.97;5050319;28;20849;-56
2022/05/09 03:46:01;;;;;;;12.37;5.47;;;10.80;80.40;;;10.89;56.10;95465.91;5049531;28;21027;-54
2022/05/09 03:48:28;;;;;;;14.03;6.37;;;10.80;80.10;;;10.88;55.62;95461.63;5051885;28;20450;-55
2022/05/09 03:50:57;;;;;;;9.97;5.10;;;10.80;79.60;;;10.88;55.90;95459.81;5044126;28;20486;-56
2022/05/09 03:53:25;;;;;;;11.70;4.83;;;10.80;79.60;;;10.90;55.45;95464.97;5051947;28;21009;-55
2022/05/09 03:55:52;;;;;;;7.53;4.47;;;10.80;79.50;;;10.88;55.79;95461.63;5046358;28;20475;-56
2022/05/09 03:58:20;;;;;;;11.03;5.70;;;10.80;79.70;;;10.89;55.79;95463.28;5050794;28;20444;-56
2022/05/09 04:00:47;;;;;;;8.83;5.60;;;10.80;79.90;;;10.91;55.88;95462.19;5051325;28;20475;-53
2022/05/09 04:03:15;;;;;;;18.50;5.70;;;10.80;80.00;;;10.94;55.83;95469.03;5052971;28;20443;-57
2022/05/09 04:05:44;;;;;;;9.67;5.90;;;10.80;80.10;;;10.97;55.93;95463.50;5040907;28;20529;-56
2022/05/09 04:08:17;;;;;;;10.07;6.00;;;10.80;80.50;;;11.02;56.05;95477.09;5049374;28;20455;-56
2022/05/09 04:10:45;;;;;;;15.47;6.70;;;10.90;80.70;;;11.08;56.07;95475.78;5048662;28;20472;-56
2022/05/09 04:13:12;;;;;;;19.10;6.90;;;10.90;80.70;;;11.13;55.60;95469.13;5042919;28;20951;-57
2022/05/09 04:18:26;;;;;;;15.33;6.73;;;11.00;79.90;;;11.22;56.01;95469.34;5051118;28;20569;-54
2022/05/09 04:20:53;;;;;;;18.20;7.07;;;11.10;80.20;;;11.26;55.78;95473.38;5046270;28;21007;-56
2022/05/09 04:23:22;;;;;;;17.97;6.57;;;11.10;80.50;;;11.32;56.00;95480.75;5060378;28;20451;-56
2022/05/09 04:25:50;;;;;;;10.27;6.20;;;11.10;80.60;;;11.35;55.27;95477.88;5049974;28;21087;-53
2022/05/09 04:28:19;;;;;;;15.20;7.33;;;11.20;80.00;;;11.39;55.40;95479.28;5057496;28;20460;-57
2022/05/09 04:30:46;;;;;;;16.40;8.30;;;11.20;79.90;;;11.45;55.04;95478.78;5056489;28;20474;-59
2022/05/09 04:33:14;;;;;;;16.30;7.57;;;11.30;79.50;;;11.51;55.14;95476.56;5050295;28;20459;-55
2022/05/09 04:35:42;;;;;;;20.47;8.07;;;11.30;79.40;;;11.57;55.08;95476.03;5048814;28;20548;-55
2022/05/09 04:38:14;;;;;;;21.47;6.90;;;11.40;79.50;;;11.62;55.17;95479.97;5052648;28;20799;-56
2022/05/09 04:40:43;;;;;;;22.10;7.40;;;11.50;79.40;;;11.68;55.37;95489.16;5053509;28;20687;-55
2022/05/09 04:43:10;;;;;;;9.90;6.20;;;11.50;79.80;;;11.73;54.85;95489.59;5059851;28;20454;-55
2022/05/09 04:45:38;;;;;;;22.03;6.50;;;11.50;79.20;;;11.81;55.21;95486.28;5049859;28;21078;-56
2022/05/09 04:48:06;;;;;;;15.67;7.10;;;11.60;79.50;;;11.88;54.92;95484.78;5047072;28;20533;-56
2022/05/09 04:50:34;;;;;;;27.73;6.70;;;11.70;79.20;;;11.97;54.80;95489.28;5054749;28;20495;-55
2022/05/09 04:53:02;;;;;;;22.10;7.83;;;11.80;79.20;;;12.07;54.88;95484.06;5055735;28;20456;-57
2022/05/09 04:55:30;;;;;;;38.03;11.63;;;11.90;79.60;;;12.17;55.01;95494.63;5053972;28;20506;-57
2022/05/09 04:57:59;;;;;;;11.17;7.40;;;12.00;79.60;;;12.26;54.33;95488.56;5051289;28;20447;-55
2022/05/09 05:00:27;;;;;;;14.40;7.20;;;12.10;79.30;;;12.36;54.48;95491.22;5050338;28;20901;-60
2022/05/09 05:02:55;;;;;;;13.80;7.30;;;12.10;77.90;;;12.43;54.00;95489.72;5049874;28;20451;-59
2022/05/09 05:05:23;;;;;;;16.70;6.47;;;12.20;77.90;;;12.49;53.73;95493.63;5053715;28;20468;-57
2022/05/09 05:07:51;;;;;;;11.40;7.00;;;12.30;77.90;;;12.55;53.79;95488.63;5062045;28;20455;-56
2022/05/09 05:10:18;;;;;;;32.90;6.20;;;12.40;78.10;;;12.61;53.81;95487.25;5045077;28;20526;-57
2022/05/09 05:12:46;;;;;;;9.13;5.23;;;12.40;77.70;;;12.70;53.61;95489.06;5052751;28;20447;-56
2022/05/09 05:15:15;;;;;;;12.73;5.57;;;12.50;77.20;;;12.80;53.48;95486.44;5055589;28;20973;-55
2022/05/09 05:17:42;;;;;;;12.30;5.63;;;12.60;76.80;;;12.89;53.00;95492.69;5050933;28;20500;-57
2022/05/09 05:20:12;;;;;;;13.30;5.63;;;12.60;76.30;;;13.02;53.49;95489.75;5057801;28;20475;-57
2022/05/09 05:22:41;;;;;;;14.80;5.70;;;12.70;76.60;;;13.19;53.13;95490.88;5048864;28;20752;-55
2022/05/09 05:25:09;;;;;;;13.63;5.30;;;12.90;76.60;;;13.41;52.45;95497.69;5047540;28;20570;-54
2022/05/09 05:27:37;;;;;;;14.43;4.60;;;13.10;76.20;;;13.66;52.59;95490.09;5061762;28;20461;-55
2022/05/09 05:30:07;;;;;;;16.77;5.23;;;13.30;75.90;;;13.92;51.89;95491.13;5047121;28;20477;-55
2022/05/09 05:32:36;;;;;;;13.37;4.93;;;13.50;75.00;;;14.20;51.37;95485.88;5051565;28;20450;-55
2022/05/09 05:35:05;;;;;;;26.37;5.43;;;13.80;74.30;;;14.48;51.16;95492.00;5047143;28;20580;-57
2022/05/09 05:37:33;;;;;;;21.67;5.17;;;14.10;73.60;;;14.77;50.45;95493.63;5051322;28;20833;-56
2022/05/09 05:40:00;;;;;;;16.30;5.30;;;14.30;72.60;;;15.06;50.12;95492.59;5054416;28;20480;-55
2022/05/09 05:42:28;;;;;;;11.43;4.90;;;14.60;71.90;;;15.33;49.71;95496.13;5058466;28;20558;-55
2022/05/09 05:44:56;;;;;;;8.93;6.10;;;14.90;71.10;;;15.61;49.22;95491.50;5049119;28;20452;-57
2022/05/09 05:47:24;;;;;;;7.43;3.90;;;15.10;70.30;;;15.89;49.00;95499.34;5061677;28;20454;-54
2022/05/09 05:49:52;;;;;;;13.07;4.97;;;15.40;69.30;;;16.17;48.16;95496.50;5059853;28;20546;-57
2022/05/09 05:52:20;;;;;;;27.43;5.93;;;15.70;68.10;;;16.43;47.41;95493.78;5062475;28;20443;-57
2022/05/09 05:54:47;;;;;;;7.20;4.90;;;16.00;66.80;;;16.68;47.22;95489.38;5056709;28;20489;-55
2022/05/09 05:57:20;;;;;;;14.10;6.60;;;16.20;66.30;;;16.92;47.00;95487.81;5054649;28;20447;-55
2022/05/09 05:59:51;;;;;;;14.03;5.40;;;16.50;65.80;;;17.14;46.19;95489.00;5053943;28;20464;-56
2022/05/09 06:02:19;;;;;;;10.70;4.90;;;16.70;64.30;;;17.35;46.29;95484.00;5063249;28;20454;-57
2022/05/09 06:04:47;;;;;;;8.03;5.00;;;16.90;63.40;;;17.58;45.47;95487.81;5060689;28;20833;-55
2022/05/09 06:07:15;;;;;;;8.50;5.60;;;17.10;62.50;;;17.74;45.40;95493.13;5061121;28;20963;-56
2022/05/09 06:09:44;;;;;;;9.63;5.60;;;17.20;61.40;;;17.90;45.09;95487.78;5062342;28;20454;-54
2022/05/09 06:12:12;;;;;;;15.30;5.90;;;17.40;62.00;;;18.14;45.01;95496.72;5061416;28;20447;-57
2022/05/09 06:14:39;;;;;;;8.10;5.50;;;17.60;61.90;;;18.35;44.41;95488.16;5054945;28;20506;-57
2022/05/09 06:17:06;;;;;;;8.67;5.13;;;17.80;60.80;;;18.60;43.97;95486.19;5059430;28;20475;-58
2022/05/09 06:19:34;;;;;;;18.53;5.73;;;18.00;60.90;;;18.83;43.56;95485.41;5056674;28;20454;-56
2022/05/09 06:22:01;;;;;;;12.20;5.10;;;18.30;58.70;;;19.05;43.10;95491.78;5061651;28;20486;-56
2022/05/09 06:24:30;;;;;;;11.27;5.83;;;18.50;58.70;;;19.27;43.41;95487.47;5058187;28;20494;-56
2022/05/09 06:26:57;;;;;;;7.93;5.67;;;18.70;58.10;;;19.50;42.60;95491.94;5058418;28;20478;-56
2022/05/09 06:29:25;;;;;;;17.53;5.83;;;18.90;57.50;;;19.63;41.77;95492.19;5061224;28;20443;-55
2022/05/09 06:31:52;;;;;;;24.97;5.43;;;19.10;56.10;;;19.74;41.62;95492.75;5054778;28;20490;-58
2022/05/09 06:34:19;;;;;;;10.77;5.93;;;19.20;55.80;;;19.92;41.49;95487.91;5062136;28;20874;-57
2022/05/09 06:36:47;;;;;;;7.50;5.20;;;19.30;56.40;;;20.12;41.79;95490.06;5058862;28;20870;-56
2022/05/09 06:39:14;;;;;;;11.23;5.23;;;19.50;55.50;;;20.35;41.12;95488.09;5062534;28;20903;-57
2022/05/09 06:41:43;;;;;;;13.70;5.50;;;19.80;55.20;;;20.61;40.54;95484.13;5060385;28;20471;-56
2022/05/09 06:44:11;;;;;;;12.70;5.13;;;20.00;54.60;;;20.86;40.18;95491.84;5059737;28;20993;-55
2022/05/09 06:46:38;;;;;;;7.07;5.40;;;20.20;53.40;;;21.11;39.81;95490.47;5060629;28;20563;-56
2022/05/09 06:49:06;;;;;;;11.40;4.40;;;20.50;53.20;;;21.36;39.62;95483.91;5057810;28;20454;-56
2022/05/09 06:51:33;;;;;;;10.67;5.33;;;20.70;52.70;;;21.61;39.23;95484.34;5057251;28;20571;-56
2022/05/09 06:54:02;;;;;;;10.40;5.13;;;20.90;52.50;;;21.84;38.72;95487.66;5060236;28;20806;-58
2022/05/09 06:56:30;;;;;;;11.73;5.17;;;21.20;51.60;;;22.00;38.45;95478.47;5059942;28;20464;-56
2022/05/09 06:58:58;;;;;;;6.97;4.77;;;21.40;51.10;;;22.14;38.34;95481.25;5051905;28;20460;-56
2022/05/09 07:01:28;;;;;;;6.43;4.27;;;21.50;50.50;;;22.31;37.78;95489.84;5051482;28;20637;-59
2022/05/09 07:03:56;;;;;;;17.40;4.93;;;21.70;50.50;;;22.31;36.48;95487.16;5056511;28;20972;-57
2022/05/09 07:06:23;;;;;;;9.63;5.37;;;21.70;48.20;;;22.15;37.22;95474.84;5057229;28;20478;-57
2022/05/09 07:08:51;;;;;;;9.50;4.73;;;21.60;48.70;;;22.09;36.84;95481.84;5052227;28;20451;-56
2022/05/09 07:11:19;;;;;;;11.50;5.47;;;21.60;48.80;;;22.13;37.16;95483.09;5054784;28;21083;-56
2022/05/09 07:13:47;;;;;;;7.00;4.73;;;21.60;48.80;;;22.26;37.10;95481.50;5059906;28;20489;-57
2022/05/09 07:16:17;;;;;;;7.67;4.67;;;21.70;49.00;;;22.48;37.08;95483.13;5054652;28;20597;-56
2022/05/09 07:18:45;;;;;;;9.13;5.43;;;21.90;49.00;;;22.76;37.08;95479.50;5063115;28;20451;-57
2022/05/09 07:21:12;;;;;;;5.43;4.93;;;22.10;48.60;;;23.07;36.44;95481.66;5054122;28;20480;-58
2022/05/09 07:23:40;;;;;;;16.87;5.97;;;22.40;48.10;;;23.36;35.92;95473.47;5060379;28;20541;-58
2022/05/09 07:26:07;;;;;;;11.67;5.50;;;22.70;47.90;;;23.55;35.62;95471.84;5059424;28;20991;-58
2022/05/09 07:28:35;;;;;;;43.27;5.27;;;22.90;47.20;;;23.76;35.85;95473.50;5052847;28;20455;-56
2022/05/09 07:31:02;;;;;;;12.33;4.90;;;23.10;46.80;;;23.93;34.92;95477.44;5054428;28;20796;-56
2022/05/09 07:33:31;;;;;;;21.57;5.33;;;23.30;46.30;;;24.06;34.77;95473.91;5053782;28;20533;-58
2022/05/09 07:35:59;;;;;;;8.17;6.07;;;23.50;46.40;;;24.14;35.07;95478.25;5056375;28;20513;-57
2022/05/09 07:38:26;;;;;;;7.40;4.57;;;23.60;46.30;;;24.18;35.12;95471.41;5061132;28;20451;-55
2022/05/09 07:40:54;;;;;;;13.20;4.67;;;23.60;45.60;;;24.31;34.90;95470.56;5052944;28;20926;-57
2022/05/09 07:43:23;;;;;;;8.23;4.53;;;23.70;45.40;;;24.52;34.16;95472.13;5056507;28;20542;-57
2022/05/09 07:45:51;;;;;;;6.97;4.57;;;23.90;45.60;;;24.76;34.59;95472.50;5061651;28;20498;-55
2022/05/09 07:48:19;;;;;;;9.33;4.40;;;24.10;45.60;;;25.10;34.00;95473.13;5056925;28;21062;-56
2022/05/09 07:50:48;;;;;;;17.63;5.10;;;24.40;44.80;;;25.37;33.86;95471.13;5056778;28;20549;-54
2022/05/09 07:53:19;;;;;;;9.00;5.70;;;24.70;44.90;;;25.62;33.25;95468.47;5057023;28;20991;-57
2022/05/09 07:55:46;;;;;;;9.90;5.73;;;24.90;43.90;;;25.83;32.89;95474.53;5058670;28;20594;-56
2022/05/09 07:58:14;;;;;;;8.47;4.73;;;25.10;43.70;;;26.00;32.52;95470.25;5059873;28;20900;-57
2022/05/09 08:00:42;;;;;;;10.80;5.23;;;25.30;43.00;;;26.08;32.45;95474.53;5054810;28;20480;-54
2022/05/09 08:03:16;;;;;;;10.53;5.10;;;25.50;42.30;;;26.11;32.00;95472.22;5051361;28;20657;-57
2022/05/09 08:05:43;;;;;;;7.57;5.37;;;25.60;42.10;;;26.15;32.13;95469.06;5057220;28;20462;-57
2022/05/09 08:08:13;;;;;;;12.27;4.50;;;25.60;42.30;;;26.37;31.56;95469.44;5056187;28;20447;-56
2022/05/09 08:10:40;;;;;;;15.77;5.77;;;25.70;42.20;;;26.67;31.99;95466.84;5057294;28;21006;-56
2022/05/09 08:13:08;;;;;;;5.20;4.03;;;26.00;42.10;;;27.02;31.53;95471.63;5051475;28;21090;-55
2022/05/09 08:15:35;;;;;;;12.50;3.93;;;26.30;41.90;;;27.38;31.20;95466.38;5059686;28;20494;-54
2022/05/09 08:18:03;;;;;;;5.30;3.63;;;26.70;41.60;;;27.71;30.47;95466.66;5063727;28;20516;-54
2022/05/09 08:20:33;;;;;;;5.20;3.40;;;27.00;40.60;;;28.03;30.40;95474.47;5062180;28;20471;-58
2022/05/09 08:23:00;;;;;;;8.53;2.93;;;27.30;40.10;;;28.23;29.62;95471.41;5060079;28;20549;-57
2022/05/09 08:25:30;;;;;;;6.17;2.37;;;27.60;39.50;;;28.47;29.40;95475.97;5062616;28;20848;-55
2022/05/09 08:27:57;;;;;;;3.30;2.43;;;27.80;39.10;;;28.68;29.60;95474.56;5060611;28;20858;-57
2022/05/09 08:30:24;;;;;;;17.63;3.00;;;28.00;38.50;;;28.91;29.20;95471.78;5063936;28;20501;-55
2022/05/09 08:32:55;;;;;;;6.73;2.50;;;28.30;38.30;;;29.13;28.23;95476.53;5063674;28;20473;-60
2022/05/09 08:35:22;;;;;;;5.43;2.77;;;28.50;37.60;;;29.10;27.67;95472.41;5058698;28;20572;-57
2022/05/09 08:37:50;;;;;;;5.20;2.30;;;28.50;36.70;;;29.07;27.90;95470.19;5064951;28;20927;-57
2022/05/09 08:40:20;;;;;;;7.57;2.60;;;28.50;35.80;;;29.17;28.03;95469.56;5057484;28;20490;-57
2022/05/09 08:42:54;;;;;;;3.50;2.10;;;28.60;36.30;;;29.24;26.69;95467.56;5066562;28;20448;-58
2022/05/09 08:45:27;;;;;;;4.30;2.20;;;28.60;35.80;;;29.27;26.14;95468.97;5062710;28;20510;-59
2022/05/09 08:48:22;;;;;;;10.87;2.73;;;28.70;34.70;;;29.22;26.67;95466.16;5061430;28;20518;-55
2022/05/09 08:51:17;;;;;;;9.17;2.40;;;28.60;34.60;;;29.40;24.55;95465.94;5062695;28;21014;-57
2022/05/09 08:53:45;;;;;;;3.00;2.33;;;28.80;32.20;;;29.57;25.19;95468.69;5052784;28;20497;-56
2022/05/09 08:56:15;;;;;;;7.40;2.80;;;28.90;33.00;;;29.71;25.69;95466.47;5058921;28;20497;-56
2022/05/09 08:58:47;;;;;;;5.97;2.80;;;29.10;32.90;;;29.88;24.47;95466.50;5049732;28;20451;-57
2022/05/09 09:01:16;;;;;;;7.90;2.50;;;29.20;32.60;;;29.90;24.86;95458.97;5057592;28;20594;-54
2022/05/09 09:03:51;;;;;;;9.67;3.60;;;29.30;31.90;;;29.83;23.86;95458.28;5065844;28;20478;-56
2022/05/09 09:06:34;;;;;;;7.10;2.10;;;29.30;31.50;;;29.89;22.25;95465.44;5057914;28;21032;-57
2022/05/09 09:09:07;;;;;;;2.60;2.00;;;29.40;28.90;;;29.87;23.74;95456.75;5059085;28;21033;-57
2022/05/09 09:11:46;;;;;;;3.87;1.77;;;29.30;30.30;;;29.95;21.62;95456.31;5060567;28;20478;-56
2022/05/09 09:14:19;;;;;;;7.00;1.83;;;29.40;28.30;;;30.04;22.17;95456.72;5059673;28;20822;-57
2022/05/09 09:17:11;;;;;;;2.67;1.60;;;29.40;28.90;;;29.96;21.65;95447.13;5056069;28;20498;-55
2022/05/09 09:20:06;;;;;;;5.63;2.27;;;29.40;28.20;;;29.68;21.93;95447.97;5059795;28;20541;-56
2022/05/09 09:23:14;;;;;;;2.73;1.87;;;29.20;28.90;;;29.43;22.54;95451.91;5058504;28;20450;-57
2022/05/09 09:25:49;;;;;;;1.97;1.77;;;29.00;29.00;;;29.39;22.90;95444.50;5057667;28;20789;-54
2022/05/09 09:28:18;;;;;;;2.10;1.90;;;28.90;29.10;;;29.54;23.17;95444.78;5067346;28;20468;-56
2022/05/09 09:30:47;;;;;;;2.80;1.50;;;28.90;29.40;;;29.69;22.52;95438.78;5055686;28;20474;-56
2022/05/09 09:33:17;;;;;;;2.90;1.70;;;29.00;29.40;;;29.72;22.73;95443.72;5062373;28;20457;-56
2022/05/09 09:35:49;;;;;;;1.70;1.60;;;29.10;28.90;;;29.71;21.98;95443.97;5061288;28;20503;-57
2022/05/09 09:38:35;;;;;;;2.27;1.60;;;29.10;28.40;;;29.57;21.68;95430.72;5058064;28;20969;-56
2022/05/09 09:41:17;;;;;;;3.80;2.23;;;29.00;27.80;;;29.58;20.77;95434.28;5057621;28;21045;-55
2022/05/09 09:43:45;;;;;;;3.63;1.70;;;28.90;27.60;;;29.41;21.74;95432.38;5060340;28;20505;-58
2022/05/09 09:46:14;;;;;;;10.10;2.10;;;28.90;27.90;;;29.26;21.15;95430.19;5062971;28;20493;-58
2022/05/09 09:48:43;;;;;;;5.47;1.50;;;28.80;27.00;;;29.26;20.37;95426.69;5056037;28;20873;-57
2022/05/09 09:51:12;;;;;;;3.60;1.87;;;28.70;26.80;;;29.33;20.84;95428.16;5059820;28;20470;-57
2022/05/09 09:53:42;;;;;;;1.70;1.60;;;28.70;26.80;;;29.39;20.49;95415.53;5058821;28;20450;-57
2022/05/09 09:56:25;;;;;;;8.97;1.47;;;28.80;27.10;;;29.53;20.56;95424.16;5063226;28;20494;-57
2022/05/09 09:58:53;;;;;;;6.30;1.40;;;28.90;27.10;;;29.76;19.77;95425.06;5056967;28;20455;-55
2022/05/09 10:01:25;;;;;;;2.23;1.60;;;29.10;26.60;;;29.81;19.54;95422.47;5057385;28;20554;-56
2022/05/09 10:04:06;;;;;;;1.53;1.30;;;29.20;26.40;;;29.56;19.91;95429.09;5055772;28;20579;-57
2022/05/09 10:06:33;;;;;;;4.73;1.43;;;29.10;26.00;;;29.32;18.66;95421.09;5056576;28;20495;-56
2022/05/09 10:09:02;;;;;;;3.77;1.70;;;28.90;25.40;;;29.29;20.11;95421.56;5061647;28;20521;-56
2022/05/09 10:11:30;;;;;;;2.60;1.50;;;28.80;25.80;;;29.32;19.51;95415.66;5055210;28;20467;-57
2022/05/09 10:13:59;;;;;;;2.00;1.50;;;28.80;26.00;;;29.33;19.72;95419.22;5062359;28;20469;-55
2022/05/09 10:16:33;;;;;;;3.60;1.40;;;28.80;25.70;;;29.32;19.37;95415.66;5054082;28;20499;-55
2022/05/09 10:19:00;;;;;;;5.87;1.47;;;28.70;25.20;;;29.29;19.52;95408.03;5057412;28;20486;-58
2022/05/09 10:27:25;;;;;;;7.57;1.53;;;28.80;25.50;;;29.24;19.53;95407.94;5058733;28;20457;-55
2022/05/09 10:29:56;;;;;;;5.70;1.23;;;28.70;25.30;;;29.17;17.06;95407.25;5062547;28;20786;-58
2022/05/09 10:32:27;;;;;;;2.43;1.00;;;28.60;22.70;;;29.09;17.83;95403.03;5054764;28;20439;-56
2022/05/09 10:34:57;;;;;;;2.43;1.43;;;28.50;22.70;;;29.01;17.17;95416.19;5058785;28;20499;-58
2022/05/09 10:37:27;;;;;;;1.27;1.00;;;28.50;22.70;;;28.86;17.28;95406.72;5060105;28;21112;-54
2022/05/09 10:40:07;;;;;;;1.70;1.00;;;28.40;23.00;;;28.83;16.67;95403.66;5057033;28;20435;-56